createdAt,value
2022-09-23T00:00:43.086Z,54.83
2022-09-23T00:01:46.520Z,55.11
2022-09-23T00:02:49.860Z,54.69
2022-09-23T00:03:51.726Z,54.69
2022-09-23T00:04:54.659Z,54.49
2022-09-23T00:06:00.608Z,55.16
2022-09-23T00:07:03.529Z,55.73
2022-09-23T00:08:06.500Z,55.03
2022-09-23T00:09:09.364Z,55.42
2022-09-23T00:10:11.174Z,54.69
2022-09-23T00:11:16.052Z,55.39
2022-09-23T00:12:18.167Z,55.23
2022-09-23T00:13:20.997Z,55.19
2022-09-23T00:14:22.893Z,54.42
2022-09-23T00:15:29.977Z,54.54
2022-09-23T00:16:34.573Z,54.99
2022-09-23T00:17:37.566Z,55.19
2022-09-23T00:18:39.800Z,54.85
2022-09-23T00:19:42.824Z,55.35
2022-09-23T00:20:44.769Z,54.73
2022-09-23T00:21:47.610Z,54.82
2022-09-23T00:22:49.366Z,54.96
2022-09-23T00:23:52.318Z,54.73
2022-09-23T00:24:54.121Z,55.17
2022-09-23T00:25:57.838Z,55.12
2022-09-23T00:26:59.955Z,54.78
2022-09-23T00:28:03.175Z,55.34
2022-09-23T00:29:05.070Z,54.55
2022-09-23T00:30:10.058Z,55.08
2022-09-23T00:31:15.278Z,54.94
2022-09-23T00:32:18.141Z,55.17
2022-09-23T00:33:20.097Z,54.15
2022-09-23T00:34:23.177Z,55.24
2022-09-23T00:35:24.980Z,54.32
2022-09-23T00:36:29.357Z,55.12
2022-09-23T00:37:31.544Z,55.11
2022-09-23T00:38:34.901Z,55.13
2022-09-23T00:39:36.724Z,54.79
2022-09-23T00:40:43.948Z,55.12
2022-09-23T00:41:45.852Z,55.06
2022-09-23T00:42:51.187Z,55.10
2022-09-23T00:43:54.706Z,54.49
2022-09-23T00:44:59.136Z,55.26
2022-09-23T00:46:01.066Z,54.63
2022-09-23T00:47:05.597Z,54.09
2022-09-23T00:48:14.714Z,54.96
2022-09-23T00:49:26.014Z,55.30
2022-09-23T00:50:31.313Z,54.59
2022-09-23T00:51:37.750Z,55.30
2022-09-23T00:52:39.690Z,54.27
2022-09-23T00:53:43.045Z,54.58
2022-09-23T00:54:46.273Z,54.41
2022-09-23T00:55:51.542Z,54.93
2022-09-23T00:56:54.315Z,55.22
2022-09-23T00:58:00.146Z,54.48
2022-09-23T00:59:03.043Z,54.67
2022-09-23T01:00:08.292Z,55.27
2022-09-23T01:01:12.101Z,55.67
2022-09-23T01:02:18.331Z,54.95
2022-09-23T01:03:22.889Z,54.87
2022-09-23T01:04:29.241Z,54.53
2022-09-23T01:05:31.239Z,54.45
2022-09-23T01:06:34.081Z,54.83
2022-09-23T01:07:36.052Z,55.09
2022-09-23T01:08:39.034Z,54.70
2022-09-23T01:09:41.257Z,55.12
2022-09-23T01:10:56.456Z,55.28
2022-09-23T01:12:10.434Z,55.25
2022-09-23T01:13:21.180Z,54.94
2022-09-23T01:14:36.953Z,54.92
2022-09-23T01:15:45.811Z,55.55
2022-09-23T01:16:54.478Z,54.79
2022-09-23T01:18:09.529Z,54.72
2022-09-23T01:19:34.311Z,54.53
2022-09-23T01:20:59.382Z,54.30
2022-09-23T01:22:10.695Z,54.84
2022-09-23T01:23:37.754Z,54.72
2022-09-23T01:24:48.987Z,55.28
2022-09-23T01:26:07.999Z,54.90
2022-09-23T01:27:25.196Z,54.58
2022-09-23T01:28:40.988Z,54.74
2022-09-23T01:30:06.664Z,55.39
2022-09-23T01:31:17.451Z,54.39
2022-09-23T01:32:31.251Z,54.56
2022-09-23T01:33:40.971Z,54.70
2022-09-23T01:34:49.853Z,55.25
2022-09-23T01:36:08.009Z,54.35
2022-09-23T01:37:14.152Z,54.96
2022-09-23T01:38:24.921Z,55.18
2022-09-23T01:39:35.216Z,54.89
2022-09-23T01:40:46.537Z,55.26
2022-09-23T01:41:59.944Z,55.01
2022-09-23T01:43:06.260Z,54.58
2022-09-23T01:44:12.486Z,54.95
2022-09-23T01:45:20.118Z,54.57
2022-09-23T01:46:31.632Z,54.93
2022-09-23T01:47:38.262Z,54.30
2022-09-23T01:48:47.667Z,54.31
2022-09-23T01:49:54.826Z,55.04
2022-09-23T01:51:04.536Z,54.90
2022-09-23T01:52:15.445Z,54.62
2022-09-23T01:53:24.542Z,54.96
2022-09-23T01:54:34.782Z,54.59
2022-09-23T01:55:40.319Z,55.35
2022-09-23T01:56:48.457Z,55.05
2022-09-23T01:57:55.472Z,54.54
2022-09-23T01:59:04.428Z,55.31
2022-09-23T02:00:10.472Z,54.59
2022-09-23T02:01:22.694Z,54.10
2022-09-23T02:02:32.794Z,54.25
2022-09-23T02:03:42.599Z,54.94
2022-09-23T02:04:48.032Z,55.19
2022-09-23T02:05:58.100Z,54.53
2022-09-23T02:07:03.559Z,54.52
2022-09-23T02:08:10.274Z,54.12
2022-09-23T02:09:15.815Z,54.04
2022-09-23T02:10:25.076Z,55.10
2022-09-23T02:11:27.544Z,54.82
2022-09-23T02:12:34.943Z,54.73
2022-09-23T02:13:41.175Z,54.34
2022-09-23T02:14:47.837Z,54.19
2022-09-23T02:15:53.828Z,54.71
2022-09-23T02:16:59.615Z,54.18
2022-09-23T02:18:08.719Z,54.30
2022-09-23T02:19:15.250Z,54.31
2022-09-23T02:20:22.014Z,54.58
2022-09-23T02:21:28.767Z,54.38
2022-09-23T02:22:39.323Z,54.09
2022-09-23T02:23:46.799Z,54.61
2022-09-23T02:24:49.328Z,54.84
2022-09-23T02:25:59.080Z,54.08
2022-09-23T02:27:13.246Z,54.12
2022-09-23T02:28:19.011Z,54.94
2022-09-23T02:29:26.854Z,53.97
2022-09-23T02:30:32.233Z,54.42
2022-09-23T02:31:41.484Z,54.41
2022-09-23T02:32:52.216Z,54.90
2022-09-23T02:34:01.426Z,54.09
2022-09-23T02:35:16.086Z,54.55
2022-09-23T02:36:26.641Z,54.32
2022-09-23T02:37:38.844Z,54.54
2022-09-23T02:38:45.115Z,54.44
2022-09-23T02:39:58.642Z,54.77
2022-09-23T02:41:09.432Z,54.43
2022-09-23T02:42:16.539Z,55.16
2022-09-23T02:43:27.883Z,54.59
2022-09-23T02:44:30.099Z,54.72
2022-09-23T02:45:33.714Z,54.80
2022-09-23T02:46:37.000Z,54.71
2022-09-23T02:47:44.992Z,55.03
2022-09-23T02:48:53.203Z,54.29
2022-09-23T02:49:57.361Z,55.06
2022-09-23T02:51:02.197Z,55.01
2022-09-23T02:52:07.666Z,54.13
2022-09-23T02:53:09.724Z,54.12
2022-09-23T02:54:15.914Z,54.89
2022-09-23T02:55:22.146Z,54.89
2022-09-23T02:56:25.831Z,54.75
2022-09-23T02:57:28.372Z,54.83
2022-09-23T02:58:31.332Z,54.57
2022-09-23T02:59:34.581Z,55.11
2022-09-23T03:00:54.509Z,55.14
2022-09-23T03:02:20.788Z,54.33
2022-09-23T03:03:41.822Z,54.42
2022-09-23T03:04:52.493Z,54.87
2022-09-23T03:05:59.851Z,54.47
2022-09-23T03:07:06.263Z,54.63
2022-09-23T03:08:25.988Z,55.00
2022-09-23T03:09:33.218Z,54.91
2022-09-23T03:10:44.852Z,54.44
2022-09-23T03:11:53.069Z,54.17
2022-09-23T03:13:07.002Z,54.78
2022-09-23T03:14:17.743Z,54.49
2022-09-23T03:15:27.809Z,54.61
2022-09-23T03:16:37.200Z,54.81
2022-09-23T03:17:48.053Z,54.26
2022-09-23T03:18:55.610Z,54.97
2022-09-23T03:20:04.729Z,54.81
2022-09-23T03:21:12.230Z,54.83
2022-09-23T03:22:20.052Z,54.66
2022-09-23T03:23:26.086Z,54.53
2022-09-23T03:24:32.204Z,54.55
2022-09-23T03:25:37.311Z,54.54
2022-09-23T03:26:44.464Z,54.04
2022-09-23T03:27:46.306Z,54.93
2022-09-23T03:28:51.267Z,54.09
2022-09-23T03:29:55.230Z,55.01
2022-09-23T03:31:00.996Z,54.13
2022-09-23T03:32:06.985Z,54.21
2022-09-23T03:33:16.661Z,54.74
2022-09-23T03:34:22.875Z,54.37
2022-09-23T03:35:28.897Z,54.68
2022-09-23T03:36:52.044Z,55.00
2022-09-23T03:38:02.620Z,54.12
2022-09-23T03:39:10.324Z,53.87
2022-09-23T03:40:17.233Z,54.24
2022-09-23T03:41:29.312Z,54.60
2022-09-23T03:42:34.266Z,54.51
2022-09-23T03:43:38.929Z,54.50
2022-09-23T03:44:45.373Z,54.19
2022-09-23T03:45:48.961Z,54.76
2022-09-23T03:46:50.836Z,54.42
2022-09-23T03:47:53.636Z,54.40
2022-09-23T03:48:59.847Z,54.50
2022-09-23T03:50:02.927Z,54.92
2022-09-23T03:51:19.156Z,54.70
2022-09-23T03:52:25.719Z,54.09
2022-09-23T03:53:28.913Z,54.72
2022-09-23T03:54:32.344Z,54.24
2022-09-23T03:55:34.753Z,54.04
2022-09-23T03:56:37.884Z,54.67
2022-09-23T03:57:39.762Z,55.06
2022-09-23T03:58:42.623Z,54.93
2022-09-23T03:59:44.486Z,54.60
2022-09-23T04:00:49.286Z,54.78
2022-09-23T04:01:58.521Z,54.54
2022-09-23T04:03:01.576Z,54.20
2022-09-23T04:04:03.399Z,55.02
2022-09-23T04:05:07.619Z,54.29
2022-09-23T04:06:09.835Z,54.16
2022-09-23T04:07:13.433Z,54.96
2022-09-23T04:08:16.636Z,54.38
2022-09-23T04:09:19.446Z,54.56
2022-09-23T04:10:21.284Z,54.35
2022-09-23T04:11:24.214Z,54.43
2022-09-23T04:12:26.042Z,54.09
2022-09-23T04:13:29.343Z,54.55
2022-09-23T04:14:31.268Z,54.64
2022-09-23T04:15:34.093Z,54.12
2022-09-23T04:16:36.020Z,54.93
2022-09-23T04:17:39.078Z,54.62
2022-09-23T04:18:41.123Z,54.72
2022-09-23T04:19:44.992Z,54.13
2022-09-23T04:20:47.045Z,53.91
2022-09-23T04:21:50.118Z,54.91
2022-09-23T04:22:51.988Z,54.91
2022-09-23T04:23:56.124Z,54.28
2022-09-23T04:24:57.960Z,54.54
2022-09-23T04:26:00.746Z,54.20
2022-09-23T04:27:02.814Z,54.31
2022-09-23T04:28:05.538Z,54.80
2022-09-23T04:29:08.176Z,54.02
2022-09-23T04:30:12.094Z,53.98
2022-09-23T04:31:14.152Z,54.77
2022-09-23T04:32:17.051Z,54.27
2022-09-23T04:33:19.169Z,54.44
2022-09-23T04:34:22.360Z,55.15
2022-09-23T04:35:24.302Z,54.49
2022-09-23T04:36:29.119Z,54.80
2022-09-23T04:37:30.910Z,54.75
2022-09-23T04:38:33.774Z,54.29
2022-09-23T04:39:37.029Z,54.25
2022-09-23T04:40:40.151Z,54.20
2022-09-23T04:41:42.305Z,54.46
2022-09-23T04:42:45.122Z,54.89
2022-09-23T04:43:47.248Z,54.54
2022-09-23T04:44:50.190Z,54.30
2022-09-23T04:45:59.525Z,54.72
2022-09-23T04:47:02.716Z,55.25
2022-09-23T04:48:04.667Z,54.42
2022-09-23T04:49:07.870Z,54.99
2022-09-23T04:50:10.142Z,54.91
2022-09-23T04:51:14.883Z,54.42
2022-09-23T04:52:16.922Z,54.40
2022-09-23T04:53:20.104Z,54.68
2022-09-23T04:54:23.015Z,55.22
2022-09-23T04:55:26.264Z,55.16
2022-09-23T04:56:32.564Z,54.69
2022-09-23T04:57:34.518Z,55.22
2022-09-23T04:58:37.719Z,55.24
2022-09-23T04:59:39.733Z,54.90
2022-09-23T05:00:42.622Z,55.03
2022-09-23T05:01:44.549Z,54.73
2022-09-23T05:02:49.608Z,54.90
2022-09-23T05:03:52.983Z,54.77
2022-09-23T05:04:55.850Z,55.29
2022-09-23T05:05:59.930Z,55.04
2022-09-23T05:07:03.608Z,54.45
2022-09-23T05:08:05.514Z,56.02
2022-09-23T05:09:09.382Z,54.37
2022-09-23T05:10:11.757Z,55.23
2022-09-23T05:11:15.953Z,54.49
2022-09-23T05:12:18.913Z,54.61
2022-09-23T05:13:20.742Z,55.12
2022-09-23T05:14:23.561Z,55.13
2022-09-23T05:15:25.397Z,55.28
2022-09-23T05:16:28.756Z,54.29
2022-09-23T05:17:31.202Z,54.39
2022-09-23T05:18:34.893Z,54.34
2022-09-23T05:19:37.698Z,54.74
2022-09-23T05:20:39.512Z,54.97
2022-09-23T05:21:42.683Z,54.68
2022-09-23T05:22:45.847Z,54.85
2022-09-23T05:23:49.723Z,54.45
2022-09-23T05:24:51.603Z,54.38
2022-09-23T05:25:59.017Z,54.70
2022-09-23T05:27:05.297Z,54.44
2022-09-23T05:28:07.102Z,54.64
2022-09-23T05:29:10.161Z,54.64
2022-09-23T05:30:12.517Z,53.98
2022-09-23T05:31:20.287Z,54.35
2022-09-23T05:32:23.635Z,53.86
2022-09-23T05:33:25.465Z,54.13
2022-09-23T05:34:28.412Z,54.37
2022-09-23T05:35:30.270Z,54.00
2022-09-23T05:36:38.363Z,54.27
2022-09-23T05:37:40.718Z,54.40
2022-09-23T05:38:43.641Z,54.17
2022-09-23T05:39:45.420Z,54.35
2022-09-23T05:40:48.275Z,54.47
2022-09-23T05:41:51.130Z,54.84
2022-09-23T05:42:54.394Z,55.04
2022-09-23T05:43:57.392Z,54.64
2022-09-23T05:44:59.246Z,54.17
2022-09-23T05:46:08.013Z,54.44
2022-09-23T05:47:10.280Z,54.71
2022-09-23T05:48:13.145Z,54.15
2022-09-23T05:49:14.943Z,54.02
2022-09-23T05:50:17.720Z,53.97
2022-09-23T05:51:21.429Z,54.15
2022-09-23T05:52:25.636Z,53.96
2022-09-23T05:53:29.294Z,53.26
2022-09-23T05:54:32.144Z,53.23
2022-09-23T05:55:35.014Z,53.48
2022-09-23T05:56:38.404Z,53.01
2022-09-23T05:57:40.294Z,52.97
2022-09-23T05:58:45.143Z,52.83
2022-09-23T05:59:48.376Z,52.94
2022-09-23T06:00:51.027Z,52.77
2022-09-23T06:01:56.497Z,52.54
2022-09-23T06:02:58.530Z,52.22
2022-09-23T06:04:02.647Z,52.91
2022-09-23T06:05:05.140Z,52.82
2022-09-23T06:06:08.690Z,52.30
2022-09-23T06:07:11.669Z,51.82
2022-09-23T06:08:13.652Z,52.51
2022-09-23T06:09:16.563Z,52.09
2022-09-23T06:10:18.381Z,52.06
2022-09-23T06:11:21.635Z,51.98
2022-09-23T06:12:25.076Z,51.48
2022-09-23T06:13:27.389Z,52.62
2022-09-23T06:14:31.581Z,52.17
2022-09-23T06:15:33.487Z,52.53
2022-09-23T06:16:36.931Z,51.48
2022-09-23T06:17:39.663Z,52.03
2022-09-23T06:18:42.790Z,52.03
2022-09-23T06:19:45.609Z,51.55
2022-09-23T06:20:47.992Z,52.30
2022-09-23T06:21:50.799Z,51.39
2022-09-23T06:22:55.542Z,52.12
2022-09-23T06:24:00.125Z,51.46
2022-09-23T06:25:02.053Z,51.21
2022-09-23T06:26:06.705Z,51.33
2022-09-23T06:27:09.638Z,51.97
2022-09-23T06:28:12.500Z,51.61
2022-09-23T06:29:15.412Z,51.02
2022-09-23T06:30:18.718Z,51.70
2022-09-23T06:31:21.537Z,52.16
2022-09-23T06:32:24.480Z,52.17
2022-09-23T06:33:35.726Z,52.06
2022-09-23T06:34:51.165Z,51.92
2022-09-23T06:35:59.894Z,53.16
2022-09-23T06:37:13.662Z,52.60
2022-09-23T06:38:18.917Z,53.15
2022-09-23T06:39:21.801Z,52.79
2022-09-23T06:40:25.244Z,54.01
2022-09-23T06:41:28.136Z,54.04
2022-09-23T06:42:34.095Z,54.01
2022-09-23T06:43:36.018Z,54.13
2022-09-23T06:44:39.132Z,54.08
2022-09-23T06:45:42.410Z,53.70
2022-09-23T06:46:45.303Z,53.82
2022-09-23T06:47:51.099Z,53.83
2022-09-23T06:48:52.974Z,53.24
2022-09-23T06:49:55.815Z,53.97
2022-09-23T06:51:02.403Z,54.04
2022-09-23T06:52:06.153Z,54.01
2022-09-23T06:53:08.219Z,53.66
2022-09-23T06:54:11.242Z,53.71
2022-09-23T06:55:13.236Z,53.10
2022-09-23T06:56:17.764Z,53.75
2022-09-23T06:57:20.586Z,53.50
2022-09-23T06:58:22.376Z,54.65
2022-09-23T06:59:25.311Z,54.10
2022-09-23T07:00:27.251Z,54.65
2022-09-23T07:01:31.542Z,54.49
2022-09-23T07:02:33.551Z,54.27
2022-09-23T07:03:37.091Z,54.55
2022-09-23T07:04:39.966Z,55.06
2022-09-23T07:05:42.176Z,54.08
2022-09-23T07:06:44.979Z,58.71
2022-09-23T07:07:46.870Z,54.53
2022-09-23T07:08:51.140Z,54.23
2022-09-23T07:09:52.951Z,53.71
2022-09-23T07:10:56.978Z,54.87
2022-09-23T07:11:59.753Z,53.83
2022-09-23T07:13:01.996Z,54.36
2022-09-23T07:14:04.810Z,54.30
2022-09-23T07:15:07.930Z,54.92
2022-09-23T07:16:12.127Z,55.38
2022-09-23T07:17:16.279Z,55.12
2022-09-23T07:18:18.230Z,54.30
2022-09-23T07:19:21.063Z,54.16
2022-09-23T07:20:23.331Z,54.46
2022-09-23T07:21:27.829Z,54.45
2022-09-23T07:22:29.632Z,54.73
2022-09-23T07:23:33.488Z,54.56
2022-09-23T07:24:36.253Z,54.63
2022-09-23T07:25:38.272Z,54.49
2022-09-23T07:26:45.452Z,54.68
2022-09-23T07:27:48.775Z,55.29
2022-09-23T07:28:56.836Z,54.84
2022-09-23T07:29:58.906Z,55.01
2022-09-23T07:31:07.038Z,54.66
2022-09-23T07:32:13.964Z,54.47
2022-09-23T07:33:30.830Z,55.48
2022-09-23T07:34:35.121Z,54.79
2022-09-23T07:35:39.798Z,55.62
2022-09-23T07:36:42.699Z,55.96
2022-09-23T07:37:46.180Z,56.33
2022-09-23T07:38:49.155Z,54.91
2022-09-23T07:39:52.173Z,55.29
2022-09-23T07:40:54.094Z,54.44
2022-09-23T07:41:56.949Z,55.78
2022-09-23T07:42:59.544Z,54.69
2022-09-23T07:44:03.400Z,55.21
2022-09-23T07:45:07.519Z,54.83
2022-09-23T07:46:12.608Z,55.60
2022-09-23T07:47:15.661Z,54.97
2022-09-23T07:48:19.832Z,55.48
2022-09-23T07:49:22.800Z,56.41
2022-09-23T07:50:24.710Z,57.94
2022-09-23T07:51:34.699Z,58.71
2022-09-23T07:52:38.382Z,58.46
2022-09-23T07:53:41.258Z,59.11
2022-09-23T07:54:44.105Z,58.80
2022-09-23T07:55:52.216Z,59.12
2022-09-23T07:56:55.068Z,59.65
2022-09-23T07:57:56.982Z,59.55
2022-09-23T07:59:04.028Z,59.36
2022-09-23T08:00:06.942Z,58.92
2022-09-23T08:01:14.660Z,59.00
2022-09-23T08:02:16.916Z,58.14
2022-09-23T08:03:21.945Z,58.47
2022-09-23T08:04:28.293Z,59.98
2022-09-23T08:05:30.243Z,59.11
2022-09-23T08:06:33.574Z,58.58
2022-09-23T08:07:35.465Z,58.57
2022-09-23T08:08:40.385Z,59.78
2022-09-23T08:09:44.749Z,60.08
2022-09-23T08:10:46.750Z,60.91
2022-09-23T08:11:50.677Z,61.36
2022-09-23T08:12:53.511Z,59.93
2022-09-23T08:13:55.990Z,60.07
2022-09-23T08:15:00.389Z,59.27
2022-09-23T08:16:02.718Z,58.47
2022-09-23T08:17:05.643Z,58.74
2022-09-23T08:18:07.474Z,59.16
2022-09-23T08:19:12.525Z,58.07
2022-09-23T08:20:34.462Z,59.79
2022-09-23T08:21:37.655Z,59.02
2022-09-23T08:22:39.555Z,60.14
2022-09-23T08:23:42.462Z,60.86
2022-09-23T08:24:45.326Z,61.74
2022-09-23T08:25:48.341Z,60.30
2022-09-23T08:26:53.347Z,58.94
2022-09-23T08:27:55.335Z,58.06
2022-09-23T08:28:58.260Z,58.06
2022-09-23T08:30:00.650Z,56.98
2022-09-23T08:31:03.579Z,57.75
2022-09-23T08:32:06.564Z,59.15
2022-09-23T08:33:08.462Z,58.69
2022-09-23T08:34:13.258Z,59.38
2022-09-23T08:35:15.470Z,58.19
2022-09-23T08:36:18.331Z,57.72
2022-09-23T08:37:20.379Z,58.00
2022-09-23T08:38:23.196Z,58.55
2022-09-23T08:39:26.100Z,59.45
2022-09-23T08:40:28.115Z,60.02
2022-09-23T08:41:40.801Z,59.90
2022-09-23T08:42:45.407Z,58.13
2022-09-23T08:43:51.142Z,58.68
2022-09-23T08:44:57.106Z,58.70
2022-09-23T08:46:05.166Z,58.14
2022-09-23T08:47:14.974Z,59.80
2022-09-23T08:48:23.315Z,59.62
2022-09-23T08:49:32.615Z,60.22
2022-09-23T08:50:42.338Z,60.56
2022-09-23T08:51:47.949Z,57.60
2022-09-23T08:52:54.929Z,58.76
2022-09-23T08:54:00.241Z,61.37
2022-09-23T08:55:04.438Z,61.01
2022-09-23T08:56:14.125Z,60.36
2022-09-23T08:57:39.489Z,60.82
2022-09-23T08:58:54.843Z,61.28
2022-09-23T08:59:57.673Z,60.74
2022-09-23T09:01:11.108Z,59.33
2022-09-23T09:02:18.040Z,60.47
2022-09-23T09:03:24.910Z,60.99
2022-09-23T09:04:39.830Z,58.62
2022-09-23T09:05:50.810Z,59.24
2022-09-23T09:07:24.563Z,58.91
2022-09-23T09:08:29.725Z,58.44
2022-09-23T09:09:41.769Z,59.77
2022-09-23T09:10:47.336Z,60.85
2022-09-23T09:11:54.111Z,60.62
2022-09-23T09:13:04.401Z,61.64
2022-09-23T09:14:18.434Z,59.43
2022-09-23T09:15:24.645Z,59.43
2022-09-23T09:16:59.594Z,60.38
2022-09-23T09:18:07.708Z,62.96
2022-09-23T09:19:16.528Z,62.77
2022-09-23T09:20:35.230Z,63.66
2022-09-23T09:21:42.497Z,63.68
2022-09-23T09:22:54.036Z,63.13
2022-09-23T09:23:57.855Z,62.94
2022-09-23T09:25:07.412Z,64.13
2022-09-23T09:26:22.463Z,63.85
2022-09-23T09:27:24.513Z,63.00
2022-09-23T09:28:33.919Z,60.86
2022-09-23T09:29:42.141Z,61.50
2022-09-23T09:30:48.524Z,63.02
2022-09-23T09:31:51.890Z,64.12
2022-09-23T09:33:01.050Z,62.12
2022-09-23T09:34:07.405Z,63.32
2022-09-23T09:35:22.623Z,63.30
2022-09-23T09:36:37.261Z,64.24
2022-09-23T09:37:46.789Z,63.15
2022-09-23T09:38:51.046Z,64.30
2022-09-23T09:39:52.966Z,63.79
2022-09-23T09:41:01.307Z,61.69
2022-09-23T09:42:06.489Z,63.40
2022-09-23T09:43:09.497Z,62.37
2022-09-23T09:44:24.184Z,63.89
2022-09-23T09:45:42.778Z,63.05
2022-09-23T09:46:55.304Z,63.80
2022-09-23T09:48:07.492Z,64.51
2022-09-23T09:49:14.529Z,64.27
2022-09-23T09:50:22.146Z,63.27
2022-09-23T09:51:25.521Z,61.77
2022-09-23T09:52:31.773Z,63.30
2022-09-23T09:53:35.740Z,62.93
2022-09-23T09:54:39.096Z,64.04
2022-09-23T09:55:42.797Z,64.08
2022-09-23T09:56:45.183Z,63.91
2022-09-23T09:57:53.596Z,63.30
2022-09-23T09:59:00.227Z,63.91
2022-09-23T10:00:20.639Z,64.67
2022-09-23T10:01:25.806Z,65.28
2022-09-23T10:02:30.969Z,66.30
2022-09-23T10:03:38.523Z,66.11
2022-09-23T10:04:42.255Z,65.89
2022-09-23T10:05:49.679Z,65.19
2022-09-23T10:07:08.152Z,65.00
2022-09-23T10:08:24.724Z,65.33
2022-09-23T10:09:33.520Z,65.55
2022-09-23T10:10:36.435Z,65.27
2022-09-23T10:11:40.437Z,66.47
2022-09-23T10:12:46.681Z,65.75
2022-09-23T10:14:05.372Z,65.88
2022-09-23T10:15:28.391Z,65.66
2022-09-23T10:16:32.416Z,65.37
2022-09-23T10:17:35.536Z,65.25
2022-09-23T10:18:39.282Z,65.58
2022-09-23T10:19:46.789Z,65.88
2022-09-23T10:20:49.175Z,65.58
2022-09-23T10:21:59.799Z,64.81
2022-09-23T10:23:07.140Z,64.48
2022-09-23T10:24:23.586Z,66.30
2022-09-23T10:25:27.573Z,65.36
2022-09-23T10:26:33.069Z,65.22
2022-09-23T10:27:38.726Z,66.53
2022-09-23T10:28:47.021Z,65.31
2022-09-23T10:29:52.270Z,65.30
2022-09-23T10:31:04.786Z,65.73
2022-09-23T10:32:28.366Z,65.72
2022-09-23T10:33:32.766Z,66.61
2022-09-23T10:34:35.940Z,65.95
2022-09-23T10:35:57.234Z,65.53
2022-09-23T10:37:05.089Z,65.21
2022-09-23T10:38:10.744Z,64.77
2022-09-23T10:39:32.630Z,64.31
2022-09-23T10:40:56.520Z,64.49
2022-09-23T10:42:22.439Z,64.24
2022-09-23T10:43:49.516Z,64.14
2022-09-23T10:45:32.493Z,64.12
2022-09-23T10:46:41.613Z,64.09
2022-09-23T10:47:54.940Z,63.68
2022-09-23T10:49:25.001Z,63.02
2022-09-23T10:50:38.368Z,62.76
2022-09-23T10:51:48.170Z,62.15
2022-09-23T10:53:05.446Z,61.42
2022-09-23T10:54:14.379Z,61.39
2022-09-23T10:55:34.722Z,61.38
2022-09-23T10:56:44.003Z,60.99
2022-09-23T10:58:05.156Z,62.62
2022-09-23T10:59:40.152Z,63.00
2022-09-23T11:00:52.082Z,64.63
2022-09-23T11:02:08.626Z,64.69
2022-09-23T11:03:42.959Z,63.76
2022-09-23T11:05:19.075Z,62.14
2022-09-23T11:06:31.954Z,63.24
2022-09-23T11:07:38.689Z,62.67
2022-09-23T11:08:57.739Z,63.08
2022-09-23T11:10:44.941Z,62.97
2022-09-23T11:12:03.562Z,63.83
2022-09-23T11:13:14.431Z,63.16
2022-09-23T11:14:34.050Z,64.04
2022-09-23T11:15:49.799Z,63.40
2022-09-23T11:17:14.593Z,63.54
2022-09-23T11:18:44.871Z,63.34
2022-09-23T11:20:06.016Z,62.14
2022-09-23T11:21:26.426Z,62.50
2022-09-23T11:22:46.122Z,61.72
2022-09-23T11:24:12.106Z,61.52
2022-09-23T11:25:30.203Z,62.11
2022-09-23T11:26:46.120Z,62.33
2022-09-23T11:28:09.796Z,61.07
2022-09-23T11:29:29.155Z,61.37
2022-09-23T11:30:43.949Z,62.66
2022-09-23T11:31:59.669Z,61.65
2022-09-23T11:33:18.372Z,62.12
2022-09-23T11:34:39.327Z,61.87
2022-09-23T11:35:49.138Z,62.72
2022-09-23T11:36:57.144Z,62.10
2022-09-23T11:38:07.242Z,61.88
2022-09-23T11:39:18.345Z,61.48
2022-09-23T11:40:27.763Z,62.47
2022-09-23T11:41:35.393Z,62.65
2022-09-23T11:42:46.888Z,62.48
2022-09-23T11:43:55.396Z,62.89
2022-09-23T11:45:01.244Z,61.68
2022-09-23T11:46:09.610Z,61.94
2022-09-23T11:47:22.145Z,62.32
2022-09-23T11:48:31.046Z,62.72
2022-09-23T11:49:39.257Z,61.64
2022-09-23T11:50:47.614Z,63.00
2022-09-23T11:52:03.568Z,63.08
2022-09-23T11:53:14.102Z,62.47
2022-09-23T11:54:21.135Z,62.73
2022-09-23T11:55:27.877Z,62.20
2022-09-23T11:56:36.357Z,62.15
2022-09-23T11:57:49.511Z,61.78
2022-09-23T11:59:02.266Z,60.83
2022-09-23T12:00:06.879Z,60.71
2022-09-23T12:01:14.559Z,61.35
2022-09-23T12:02:30.628Z,61.09
2022-09-23T12:03:44.754Z,61.25
2022-09-23T12:04:57.512Z,61.24
2022-09-23T12:06:05.165Z,60.76
2022-09-23T12:07:15.842Z,61.03
2022-09-23T12:08:25.494Z,61.62
2022-09-23T12:09:56.748Z,61.31
2022-09-23T12:11:06.075Z,60.75
2022-09-23T12:12:18.853Z,61.28
2022-09-23T12:13:29.734Z,61.84
2022-09-23T12:14:42.499Z,61.26
2022-09-23T12:16:01.963Z,62.25
2022-09-23T12:17:17.550Z,61.32
2022-09-23T12:18:37.346Z,62.20
2022-09-23T12:20:03.185Z,61.56
2022-09-23T12:21:48.636Z,62.16
2022-09-23T12:22:57.933Z,61.95
2022-09-23T12:24:19.251Z,61.11
2022-09-23T12:25:35.558Z,60.10
2022-09-23T12:26:39.738Z,61.55
2022-09-23T12:27:49.759Z,62.05
2022-09-23T12:28:56.281Z,62.66
2022-09-23T12:30:03.685Z,61.81
2022-09-23T12:31:12.534Z,61.60
2022-09-23T12:32:18.279Z,61.86
2022-09-23T12:33:24.825Z,61.58
2022-09-23T12:34:31.402Z,63.22
2022-09-23T12:35:41.260Z,62.27
2022-09-23T12:36:44.703Z,61.75
2022-09-23T12:37:47.752Z,62.38
2022-09-23T12:38:53.773Z,62.30
2022-09-23T12:40:02.091Z,62.27
2022-09-23T12:41:21.979Z,62.12
2022-09-23T12:42:26.661Z,62.58
2022-09-23T12:43:35.618Z,62.20
2022-09-23T12:44:41.877Z,62.56
2022-09-23T12:45:45.527Z,62.96
2022-09-23T12:46:49.459Z,62.75
2022-09-23T12:47:51.376Z,61.87
2022-09-23T12:49:05.064Z,62.34
2022-09-23T12:50:46.724Z,62.45
2022-09-23T12:52:15.418Z,62.25
2022-09-23T12:53:55.629Z,62.44
2022-09-23T12:54:59.774Z,61.85
2022-09-23T12:56:14.223Z,61.93
2022-09-23T12:57:43.607Z,62.99
2022-09-23T12:59:16.707Z,62.62
2022-09-23T13:00:26.938Z,62.06
2022-09-23T13:01:37.758Z,63.42
2022-09-23T13:02:43.936Z,62.60
2022-09-23T13:04:05.274Z,62.77
2022-09-23T13:05:39.416Z,63.41
2022-09-23T13:06:44.063Z,62.82
2022-09-23T13:07:50.230Z,62.15
2022-09-23T13:08:54.224Z,62.30
2022-09-23T13:10:10.238Z,62.01
2022-09-23T13:11:23.740Z,61.61
2022-09-23T13:12:33.833Z,61.83
2022-09-23T13:13:40.957Z,62.31
2022-09-23T13:14:45.563Z,61.66
2022-09-23T13:15:50.299Z,61.50
2022-09-23T13:16:53.312Z,61.39
2022-09-23T13:18:25.288Z,61.88
2022-09-23T13:19:47.213Z,61.61
2022-09-23T13:20:51.456Z,60.13
2022-09-23T13:22:09.280Z,61.95
2022-09-23T13:23:22.415Z,62.47
2022-09-23T13:24:46.378Z,61.88
2022-09-23T13:25:51.505Z,61.92
2022-09-23T13:26:57.466Z,61.90
2022-09-23T13:28:04.180Z,61.28
2022-09-23T13:29:17.335Z,61.07
2022-09-23T13:30:26.120Z,60.74
2022-09-23T13:31:28.708Z,60.95
2022-09-23T13:32:34.375Z,60.88
2022-09-23T13:33:45.836Z,60.83
2022-09-23T13:34:59.054Z,61.68
2022-09-23T13:36:05.964Z,60.74
2022-09-23T13:37:22.897Z,60.77
2022-09-23T13:38:29.753Z,62.04
2022-09-23T13:39:31.969Z,61.48
2022-09-23T13:40:36.285Z,60.37
2022-09-23T13:41:38.576Z,62.06
2022-09-23T13:42:42.390Z,62.04
2022-09-23T13:43:49.139Z,61.74
2022-09-23T13:44:57.485Z,61.43
2022-09-23T13:46:05.361Z,61.93
2022-09-23T13:47:14.698Z,61.85
2022-09-23T13:48:18.185Z,61.48
2022-09-23T13:49:24.431Z,60.93
2022-09-23T13:50:34.143Z,60.96
2022-09-23T13:51:38.154Z,61.08
2022-09-23T13:52:40.316Z,61.50
2022-09-23T13:53:43.224Z,62.16
2022-09-23T13:54:48.983Z,62.45
2022-09-23T13:56:01.616Z,62.97
2022-09-23T13:57:04.951Z,62.26
2022-09-23T13:58:17.332Z,62.36
2022-09-23T13:59:26.518Z,62.35
2022-09-23T14:00:35.550Z,61.76
2022-09-23T14:01:38.637Z,62.05
2022-09-23T14:02:42.801Z,61.07
2022-09-23T14:03:45.882Z,60.73
2022-09-23T14:04:50.081Z,61.14
2022-09-23T14:05:54.271Z,61.41
2022-09-23T14:06:57.737Z,62.17
2022-09-23T14:08:00.326Z,62.68
2022-09-23T14:09:03.966Z,61.86
2022-09-23T14:10:08.172Z,61.98
2022-09-23T14:11:16.601Z,60.36
2022-09-23T14:12:22.366Z,60.78
2022-09-23T14:13:28.639Z,59.98
2022-09-23T14:14:32.671Z,59.07
2022-09-23T14:15:37.530Z,58.72
2022-09-23T14:16:42.397Z,58.82
2022-09-23T14:17:47.501Z,57.72
2022-09-23T14:18:53.164Z,57.72
2022-09-23T14:19:55.228Z,58.01
2022-09-23T14:20:58.228Z,59.19
2022-09-23T14:22:00.467Z,59.33
2022-09-23T14:23:07.561Z,60.33
2022-09-23T14:24:18.423Z,60.68
2022-09-23T14:25:21.867Z,60.24
2022-09-23T14:26:25.619Z,61.64
2022-09-23T14:27:30.008Z,60.23
2022-09-23T14:28:33.279Z,60.46
2022-09-23T14:29:37.723Z,59.37